Terminal Aerodrome Forecast
Issued by NWS

Home | Current Version | Previous Version | Graphics & Text | Print | Product List | Glossary On
Versions: 1 2 3 4 5 6 7 8 9 10 11 12 13 14 15 16 17 18
000
FTUS43 KBIS 292300
TAFJMS
TAF
KJMS 292332Z 3000/3024 35016KT P6SM OVC015
     FM300400 VRB05KT 6SM BR SKC
     FM300700 VRB03KT 2SM BR SKC
     FM301500 14009KT P6SM SKC=

USA.gov is the U.S. government's official web portal to all federal, state and local government web resources and services.